Time;durP1;ratioP1;P1;durP2;ratioP2;P2;SDS_P1;SDS_P2;PMS_P1;PMS_P2;Temp;Humidity;BMP_temperature;BMP_pressure;BME280_temperature;BME280_humidity;BME280_pressure;Samples;Min_cycle;Max_cycle;Signal;HPM_P1;HPM_P2
2022/06/09 09:15:35;;;;;;;23.10;15.15;;;14.60;99.90;;;;;;5070708;28;21058;-72
2022/06/09 09:18:38;;;;;;;24.13;14.73;;;14.80;99.90;;;;;;5070648;28;20172;-72
2022/06/09 09:21:39;;;;;;;26.75;14.38;;;15.00;99.90;;;;;;5070395;28;20641;-73
2022/06/09 09:24:09;;;;;;;17.98;13.88;;;15.20;99.90;;;;;;5071979;28;20254;-74
2022/06/09 09:27:30;;;;;;;22.17;12.93;;;15.30;99.90;;;;;;5072476;28;20164;-72
2022/06/09 09:30:11;;;;;;;20.48;13.50;;;15.20;99.90;;;;;;5051216;28;20180;-72
2022/06/09 09:32:45;;;;;;;24.15;13.45;;;15.10;99.90;;;;;;5069501;28;20202;-70
2022/06/09 09:35:15;;;;;;;21.13;13.57;;;15.00;99.90;;;;;;5070344;28;20196;-70
2022/06/09 09:37:46;;;;;;;26.10;14.20;;;14.90;99.90;;;;;;5070379;28;20168;-73
2022/06/09 09:40:12;;;;;;;25.05;14.77;;;14.80;99.90;;;;;;5070639;28;20183;-73
2022/06/09 09:42:42;;;;;;;18.65;13.20;;;14.80;99.90;;;;;;5070477;28;20626;-75
2022/06/09 09:45:10;;;;;;;21.52;13.43;;;14.80;99.90;;;;;;5070067;28;20634;-72
2022/06/09 09:47:57;;;;;;;27.33;16.27;;;14.90;99.90;;;;;;5068678;28;20191;-74
2022/06/09 09:50:29;;;;;;;24.08;14.35;;;14.90;99.90;;;;;;5068644;28;20513;-73
2022/06/09 09:53:06;;;;;;;23.17;15.40;;;15.00;99.90;;;;;;5069789;28;20195;-73
2022/06/09 09:55:51;;;;;;;22.42;13.95;;;15.10;99.90;;;;;;5069762;28;20545;-73
2022/06/09 09:58:24;;;;;;;20.10;14.88;;;15.10;99.90;;;;;;5069896;28;20169;-73
2022/06/09 10:01:00;;;;;;;19.77;13.45;;;15.20;99.90;;;;;;5069614;28;20234;-74
2022/06/09 10:09:32;;;;;;;20.15;12.02;;;15.70;99.90;;;;;;5087704;28;20222;-72
2022/06/09 10:12:16;;;;;;;15.77;12.40;;;15.80;99.90;;;;;;5087822;28;20210;-71
2022/06/09 10:14:47;;;;;;;18.15;12.90;;;15.80;99.90;;;;;;5075546;28;20220;-71
2022/06/09 10:17:50;;;;;;;22.17;13.15;;;15.90;99.90;;;;;;5068103;28;20265;-71
2022/06/09 10:20:19;;;;;;;22.13;12.38;;;15.90;99.90;;;;;;5069368;28;20175;-72
2022/06/09 10:23:17;;;;;;;15.73;11.57;;;15.90;99.90;;;;;;5069226;28;20195;-72
2022/06/09 10:26:07;;;;;;;18.90;11.32;;;16.00;99.90;;;;;;5059481;28;20203;-75
2022/06/09 10:28:57;;;;;;;17.25;11.80;;;15.90;99.90;;;;;;5055935;28;20170;-74
2022/06/09 10:31:50;;;;;;;20.17;12.15;;;15.90;99.90;;;;;;5055961;28;20622;-71
2022/06/09 10:34:31;;;;;;;17.83;12.25;;;15.90;99.90;;;;;;5055847;28;20562;-71
2022/06/09 10:37:05;;;;;;;18.00;12.30;;;15.60;99.90;;;;;;5054321;28;20226;-71
2022/06/09 10:39:42;;;;;;;16.33;10.95;;;15.40;99.90;;;;;;5055453;28;20263;-71
2022/06/09 10:42:29;;;;;;;10.90;8.80;;;15.10;99.90;;;;;;5055710;28;20169;-71
2022/06/09 10:45:01;;;;;;;14.05;7.63;;;14.80;99.90;;;;;;5055633;28;20169;-71
2022/06/09 10:56:08;;;;;;;8.85;7.35;;;14.30;99.90;;;;;;5055501;28;20195;-71
2022/06/09 10:58:42;;;;;;;7.03;6.28;;;14.00;99.90;;;;;;5055504;28;20637;-71
2022/06/09 11:01:19;;;;;;;6.57;5.70;;;14.00;99.90;;;;;;5055440;28;20178;-73
2022/06/09 11:03:48;;;;;;;11.32;7.32;;;13.90;99.90;;;;;;5055374;28;20509;-73
2022/06/09 11:06:27;;;;;;;4.90;4.70;;;13.80;99.90;;;;;;5053956;28;20543;-72
2022/06/09 11:09:05;;;;;;;5.53;5.03;;;13.80;99.90;;;;;;5055221;28;20251;-72
2022/06/09 11:12:01;;;;;;;4.60;4.30;;;13.80;99.90;;;;;;5055223;28;20642;-72
2022/06/09 11:14:59;;;;;;;4.95;4.43;;;13.80;99.90;;;;;;5053620;28;20229;-73
2022/06/09 11:17:57;;;;;;;3.95;3.47;;;13.80;99.90;;;;;;5054351;28;20188;-72
2022/06/09 11:20:28;;;;;;;3.88;3.55;;;13.90;99.90;;;;;;5055054;28;20165;-72
2022/06/09 11:35:09;;;;;;;2.97;2.67;;;14.30;99.90;;;;;;5111240;27;20466;-71
2022/06/09 11:38:06;;;;;;;2.95;2.75;;;14.00;99.90;;;;;;5111221;28;20186;-71
2022/06/09 11:40:57;;;;;;;3.55;2.38;;;14.10;99.90;;;;;;5111155;28;20159;-71
2022/06/09 11:43:46;;;;;;;2.60;2.50;;;14.20;99.90;;;;;;5111138;28;20170;-72
2022/06/09 11:46:34;;;;;;;3.13;2.90;;;14.40;99.90;;;;;;5110995;28;20254;-73
2022/06/09 11:49:10;;;;;;;3.80;2.60;;;14.50;99.90;;;;;;5111029;28;20171;-72
2022/06/09 11:51:36;;;;;;;2.88;2.78;;;14.70;99.90;;;;;;5110969;28;20243;-72
2022/06/09 11:54:27;;;;;;;3.20;2.88;;;14.90;99.90;;;;;;5110865;28;20187;-71
2022/06/09 11:57:27;;;;;;;3.58;2.90;;;15.00;99.90;;;;;;5109438;28;20175;-72
2022/06/09 11:59:58;;;;;;;5.20;3.15;;;15.30;99.90;;;;;;5110896;28;20170;-72
2022/06/09 12:02:41;;;;;;;4.60;4.25;;;15.60;99.90;;;;;;5110758;28;20164;-72
2022/06/09 12:05:34;;;;;;;3.70;3.40;;;15.80;99.90;;;;;;5110669;28;20175;-72
2022/06/09 12:08:16;;;;;;;4.25;3.35;;;16.10;99.90;;;;;;5110650;28;20170;-72
2022/06/09 12:11:00;;;;;;;4.05;3.75;;;16.40;99.90;;;;;;5110617;28;20164;-72
2022/06/09 12:14:10;;;;;;;4.30;3.42;;;16.60;99.90;;;;;;5109188;28;20566;-74
2022/06/09 12:17:07;;;;;;;3.35;3.15;;;17.00;99.90;;;;;;5105516;28;20268;-75
2022/06/09 12:19:55;;;;;;;6.55;4.55;;;17.40;99.90;;;;;;5110438;28;20171;-76
2022/06/09 12:22:45;;;;;;;8.23;6.13;;;17.60;99.90;;;;;;5109117;28;20632;-75
2022/06/09 12:25:11;;;;;;;10.80;5.72;;;17.70;99.90;;;;;;5110455;28;20245;-76
2022/06/09 12:27:40;;;;;;;7.22;6.38;;;17.80;99.90;;;;;;5110194;28;20202;-76
2022/06/09 12:30:24;;;;;;;7.50;6.75;;;18.00;99.90;;;;;;5108817;28;20194;-75
2022/06/09 12:32:54;;;;;;;8.30;6.50;;;18.10;99.90;;;;;;5109881;28;20751;-75
2022/06/09 12:35:28;;;;;;;9.20;7.30;;;18.10;99.90;;;;;;5108826;28;20532;-75
2022/06/09 12:38:02;;;;;;;7.47;6.88;;;18.00;99.90;;;;;;5108723;28;20205;-75
2022/06/09 12:40:52;;;;;;;6.93;6.18;;;17.90;99.90;;;;;;5109906;27;20693;-75
2022/06/09 12:43:33;;;;;;;8.05;6.95;;;17.70;99.90;;;;;;5109987;28;20163;-75
2022/06/09 12:46:18;;;;;;;9.45;6.78;;;17.50;99.90;;;;;;5097153;28;20636;-74
2022/06/09 12:48:44;;;;;;;7.43;6.82;;;17.30;99.90;;;;;;5096288;28;20171;-74
2022/06/09 12:51:24;;;;;;;7.50;6.80;;;17.20;99.90;;;;;;5096226;28;20175;-74
2022/06/09 12:53:59;;;;;;;9.02;7.70;;;16.90;99.90;;;;;;5096092;28;20221;-75
2022/06/09 12:56:27;;;;;;;7.70;7.00;;;16.80;99.90;;;;;;5096173;28;20155;-74
2022/06/09 12:58:54;;;;;;;8.70;6.43;;;16.70;99.90;;;;;;5095969;28;20167;-73
2022/06/09 13:01:25;;;;;;;8.75;7.10;;;16.50;99.90;;;;;;5096303;28;20167;-71
2022/06/09 13:03:59;;;;;;;7.85;6.13;;;16.50;99.90;;;;;;5094750;28;20220;-74
2022/06/09 13:06:32;;;;;;;10.55;6.15;;;16.50;99.90;;;;;;5095987;28;20202;-73
2022/06/09 13:09:20;;;;;;;6.95;6.38;;;16.60;99.90;;;;;;5095849;28;20175;-73
2022/06/09 13:14:34;;;;;;;6.97;6.32;;;16.70;99.90;;;;;;5095803;28;20218;-81
2022/06/09 13:17:07;;;;;;;5.88;5.43;;;16.60;99.90;;;;;;5095748;28;20621;-80
2022/06/09 13:19:34;;;;;;;7.55;5.75;;;16.70;99.90;;;;;;5095712;28;20160;-78
2022/06/09 13:22:07;;;;;;;11.20;5.50;;;16.60;99.90;;;;;;5094475;28;20207;-79
2022/06/09 13:24:39;;;;;;;5.65;5.15;;;16.60;99.90;;;;;;5095399;28;20184;-78
2022/06/09 13:27:13;;;;;;;9.48;5.75;;;16.70;99.90;;;;;;5095304;28;20238;-80
2022/06/09 13:29:53;;;;;;;6.40;5.60;;;16.60;99.90;;;;;;5094122;28;20558;-79
2022/06/09 13:32:39;;;;;;;8.35;6.28;;;16.80;99.90;;;;;;5093991;28;20172;-78
2022/06/09 13:35:40;;;;;;;6.90;6.25;;;16.80;99.90;;;;;;5095321;28;20219;-79
2022/06/09 13:38:36;;;;;;;6.75;6.10;;;17.10;99.90;;;;;;5095370;28;20198;-79
2022/06/09 13:41:11;;;;;;;8.05;5.63;;;17.30;99.90;;;;;;5094047;28;20175;-78
2022/06/09 13:43:46;;;;;;;12.00;7.03;;;17.80;99.90;;;;;;5095268;28;20221;-79
2022/06/09 13:46:31;;;;;;;8.02;6.35;;;18.10;99.90;;;;;;5093896;28;20174;-81
2022/06/09 13:48:58;;;;;;;7.00;6.40;;;18.50;99.90;;;;;;5095045;28;20171;-79
2022/06/09 13:51:29;;;;;;;9.07;6.15;;;18.80;99.90;;;;;;5095072;28;20173;-71
2022/06/09 13:54:16;;;;;;;14.23;7.07;;;18.60;99.90;;;;;;5093746;28;20199;-71
2022/06/09 13:56:43;;;;;;;10.02;4.55;;;18.40;99.90;;;;;;5094046;28;20172;-71
2022/06/09 13:59:09;;;;;;;6.30;4.15;;;18.10;99.90;;;;;;5094906;28;20178;-71
2022/06/09 14:01:34;;;;;;;3.95;3.33;;;17.70;99.90;;;;;;5094937;28;20171;-71
2022/06/09 14:04:03;;;;;;;4.13;3.72;;;17.40;99.90;;;;;;5093653;28;20193;-71
2022/06/09 14:06:28;;;;;;;5.32;4.47;;;17.10;99.90;;;;;;5094775;28;20171;-71
2022/06/09 14:08:55;;;;;;;4.55;3.47;;;16.80;99.90;;;;;;5094730;28;20171;-71
2022/06/09 14:11:29;;;;;;;3.22;2.78;;;16.80;99.90;;;;;;5094806;28;20531;-72
2022/06/09 14:13:55;;;;;;;3.20;2.88;;;16.80;99.90;;;;;;5094376;28;20567;-72
2022/06/09 14:16:43;;;;;;;4.10;3.03;;;16.90;99.90;;;;;;5094633;28;20160;-72
2022/06/09 14:19:13;;;;;;;3.10;2.90;;;16.90;99.90;;;;;;5094587;28;20170;-72
2022/06/09 14:21:39;;;;;;;2.90;2.60;;;17.20;99.90;;;;;;5094519;28;20168;-71
2022/06/09 14:24:12;;;;;;;2.35;2.25;;;17.20;99.90;;;;;;5093264;28;20176;-71
2022/06/09 14:26:38;;;;;;;3.40;2.80;;;17.30;99.90;;;;;;5094434;28;20174;-71
2022/06/09 14:29:07;;;;;;;3.00;2.80;;;17.40;99.90;;;;;;5092948;28;20199;-71
2022/06/09 14:31:32;;;;;;;3.33;2.80;;;17.30;99.90;;;;;;5094170;28;20172;-72
2022/06/09 14:34:00;;;;;;;4.05;2.72;;;17.40;99.90;;;;;;5094017;28;20223;-73
2022/06/09 14:36:27;;;;;;;4.35;2.80;;;17.40;99.90;;;;;;5093062;28;20175;-73
2022/06/09 14:38:55;;;;;;;3.88;3.22;;;17.50;99.90;;;;;;5093110;28;20612;-73
2022/06/09 14:41:21;;;;;;;4.57;3.20;;;17.30;99.90;;;;;;5094104;28;20186;-73
2022/06/09 14:43:47;;;;;;;3.75;3.28;;;17.20;99.90;;;;;;5092826;28;20172;-72
2022/06/09 14:46:28;;;;;;;2.97;2.78;;;17.00;99.90;;;;;;5094117;28;20168;-72
2022/06/09 14:48:54;;;;;;;4.30;3.20;;;17.10;99.90;;;;;;5094040;28;20175;-71
2022/06/09 14:51:20;;;;;;;2.97;2.80;;;17.10;99.90;;;;;;5093888;28;20175;-72
2022/06/09 14:53:46;;;;;;;2.70;2.50;;;17.00;99.90;;;;;;5093891;28;20294;-72
2022/06/09 14:56:15;;;;;;;5.68;2.97;;;17.10;99.90;;;;;;5093965;28;20645;-72
2022/06/09 14:58:41;;;;;;;3.53;3.28;;;17.00;99.90;;;;;;5092556;28;20179;-72
2022/06/09 15:01:06;;;;;;;4.97;2.88;;;17.10;99.90;;;;;;5093751;28;20164;-71
2022/06/09 15:03:32;;;;;;;4.82;3.97;;;17.30;99.90;;;;;;5093710;28;20186;-70
2022/06/09 15:05:58;;;;;;;4.05;3.30;;;17.40;99.90;;;;;;5093601;28;20632;-70
2022/06/09 15:08:24;;;;;;;5.15;4.65;;;17.40;99.90;;;;;;5093271;28;20190;-69
2022/06/09 15:10:52;;;;;;;3.55;3.35;;;17.40;99.90;;;;;;5093669;28;20637;-70
2022/06/09 15:13:18;;;;;;;5.85;3.70;;;17.50;99.90;;;;;;5093541;28;20728;-69
2022/06/09 15:15:44;;;;;;;5.30;3.30;;;17.40;99.90;;;;;;5093603;28;20254;-69
2022/06/09 15:18:15;;;;;;;3.00;2.90;;;17.80;99.90;;;;;;5093649;28;20212;-69
2022/06/09 15:20:42;;;;;;;3.00;2.90;;;18.20;99.90;;;;;;5093627;28;20175;-69
2022/06/09 15:23:09;;;;;;;3.78;2.85;;;18.30;99.90;;;;;;5093560;28;20250;-69
2022/06/09 15:25:35;;;;;;;3.20;2.90;;;18.30;99.90;;;;;;5093436;28;20171;-69
2022/06/09 15:28:02;;;;;;;7.55;3.47;;;18.30;99.90;;;;;;5093349;28;20574;-71
2022/06/09 15:30:35;;;;;;;3.28;3.03;;;18.30;99.90;;;;;;5092126;28;20175;-69
2022/06/09 15:33:01;;;;;;;7.70;2.47;;;18.40;99.90;;;;;;5093061;28;20684;-72
2022/06/09 15:35:28;;;;;;;2.38;2.10;;;18.90;99.90;;;;;;5093440;28;20167;-72
2022/06/09 15:37:54;;;;;;;1.55;1.48;;;19.30;99.90;;;;;;5093337;28;20185;-71
2022/06/09 15:40:25;;;;;;;3.00;2.00;;;19.60;99.90;;;;;;5093323;28;20640;-72
2022/06/09 15:42:51;;;;;;;2.15;1.95;;;19.80;99.90;;;;;;5092008;28;20562;-72
2022/06/09 15:45:17;;;;;;;1.77;1.67;;;19.70;99.90;;;;;;5093330;28;20167;-71
2022/06/09 15:47:43;;;;;;;1.73;1.60;;;19.80;99.90;;;;;;5093152;28;20178;-71
2022/06/09 15:50:14;;;;;;;1.70;1.60;;;19.50;99.90;;;;;;5091967;28;20224;-71
2022/06/09 15:52:52;;;;;;;1.30;1.30;;;19.40;99.90;;;;;;5093148;28;20182;-71
2022/06/09 15:55:18;;;;;;;1.38;1.30;;;19.40;99.90;;;;;;5091996;28;20179;-71
2022/06/09 15:57:44;;;;;;;1.27;1.27;;;19.70;99.90;;;;;;5093215;28;20193;-71
2022/06/09 16:00:27;;;;;;;1.60;1.50;;;19.70;99.90;;;;;;5093184;28;20172;-72
2022/06/09 16:02:52;;;;;;;1.42;1.33;;;20.10;99.90;;;;;;5093134;28;20159;-71
2022/06/09 16:05:19;;;;;;;1.40;1.40;;;20.40;99.90;;;;;;5093053;28;20505;-71
2022/06/09 16:07:47;;;;;;;3.92;1.67;;;20.70;99.90;;;;;;5093046;28;20163;-71
2022/06/09 16:10:17;;;;;;;1.90;1.80;;;21.10;99.90;;;;;;5093072;28;20159;-73
2022/06/09 16:12:42;;;;;;;2.40;1.52;;;21.20;99.90;;;;;;5093003;28;20655;-72
2022/06/09 16:15:08;;;;;;;1.50;1.40;;;21.30;99.90;;;;;;5092986;28;20171;-72
2022/06/09 16:17:36;;;;;;;1.30;1.30;;;21.20;99.90;;;;;;5093068;28;20171;-71
2022/06/09 16:20:03;;;;;;;1.88;1.77;;;21.10;99.90;;;;;;5094296;28;20251;-74
2022/06/09 16:22:28;;;;;;;3.80;1.60;;;20.90;99.90;;;;;;5095507;28;20530;-74
2022/06/09 16:24:54;;;;;;;2.20;2.10;;;20.60;99.90;;;;;;5096939;28;20246;-73
2022/06/09 16:27:20;;;;;;;3.05;1.42;;;20.30;99.90;;;;;;5097034;28;20179;-73
2022/06/09 16:29:45;;;;;;;0.95;0.95;;;20.20;99.90;;;;;;5095577;28;20596;-71
2022/06/09 16:32:11;;;;;;;1.60;1.50;;;20.20;99.90;;;;;;5096877;28;20202;-71
2022/06/09 16:34:37;;;;;;;1.92;1.83;;;20.40;99.90;;;;;;5096729;28;20280;-72
2022/06/09 16:37:03;;;;;;;1.08;1.08;;;21.00;99.90;;;;;;5096923;28;20163;-72
2022/06/09 16:39:28;;;;;;;3.92;1.25;;;21.10;99.90;;;;;;5096696;28;20557;-72
2022/06/09 16:41:54;;;;;;;1.45;1.00;;;20.90;99.90;;;;;;5096713;28;20228;-72
2022/06/09 16:44:22;;;;;;;1.48;1.38;;;20.50;99.90;;;;;;5096808;28;20171;-72
2022/06/09 16:46:47;;;;;;;1.42;1.10;;;20.10;99.90;;;;;;5095560;28;20281;-72
2022/06/09 16:49:13;;;;;;;1.20;1.10;;;19.80;99.90;;;;;;5096606;28;20257;-72
2022/06/09 16:51:39;;;;;;;2.70;1.20;;;19.80;99.90;;;;;;5096580;28;20171;-72
2022/06/09 16:54:05;;;;;;;1.33;1.17;;;19.80;99.90;;;;;;5096407;28;20737;-72
2022/06/09 16:56:30;;;;;;;0.82;0.82;;;19.80;99.90;;;;;;5096301;28;20194;-72
2022/06/09 16:58:56;;;;;;;1.17;1.00;;;19.80;99.90;;;;;;5096283;28;20163;-72
2022/06/09 17:01:22;;;;;;;2.95;1.40;;;19.60;99.90;;;;;;5096182;28;20168;-72
2022/06/09 17:03:48;;;;;;;1.30;1.20;;;19.50;99.90;;;;;;5095003;28;20175;-72
2022/06/09 17:06:17;;;;;;;2.03;1.83;;;19.40;99.90;;;;;;5094935;28;20588;-72
2022/06/09 17:08:52;;;;;;;1.67;1.17;;;19.40;99.90;;;;;;5095771;28;20167;-72
2022/06/09 17:11:22;;;;;;;1.00;1.00;;;19.30;99.90;;;;;;5094722;28;20535;-72
2022/06/09 17:13:49;;;;;;;3.08;1.30;;;19.20;99.90;;;;;;5095893;28;20563;-72
2022/06/09 17:16:16;;;;;;;2.28;1.33;;;19.20;99.90;;;;;;5094749;28;20175;-72
2022/06/09 17:18:44;;;;;;;3.72;1.90;;;19.20;99.90;;;;;;5096047;28;20193;-72
2022/06/09 17:21:13;;;;;;;2.95;1.88;;;19.00;99.90;;;;;;5096187;28;20238;-71
2022/06/09 17:23:39;;;;;;;5.35;1.88;;;19.00;99.90;;;;;;5094750;28;20171;-71
2022/06/09 17:26:05;;;;;;;2.88;1.45;;;19.00;99.90;;;;;;5096041;28;20182;-71
2022/06/09 17:28:31;;;;;;;2.88;1.55;;;19.00;99.90;;;;;;5095823;28;20545;-71
2022/06/09 17:30:57;;;;;;;3.20;2.08;;;19.00;99.90;;;;;;5095632;28;20488;-71
2022/06/09 17:33:22;;;;;;;2.45;1.50;;;18.90;99.90;;;;;;5095589;28;20248;-71
2022/06/09 17:35:49;;;;;;;3.95;1.90;;;18.70;99.90;;;;;;5095498;28;20175;-71
2022/06/09 17:38:17;;;;;;;2.92;1.67;;;18.70;99.90;;;;;;5095507;28;20179;-71
2022/06/09 17:40:43;;;;;;;3.85;3.45;;;18.60;99.90;;;;;;5095365;28;20543;-71
2022/06/09 17:43:09;;;;;;;6.30;3.80;;;18.90;99.90;;;;;;5095482;28;20254;-71
2022/06/09 17:45:34;;;;;;;3.17;1.90;;;18.50;99.90;;;;;;5095327;28;20214;-71
2022/06/09 17:48:00;;;;;;;2.13;1.80;;;18.40;99.90;;;;;;5095427;28;20171;-71
2022/06/09 17:50:29;;;;;;;3.20;1.90;;;18.40;99.90;;;;;;5095382;28;20258;-71
2022/06/09 17:52:55;;;;;;;2.35;1.88;;;18.40;99.90;;;;;;5095298;28;20190;-71
2022/06/09 17:55:23;;;;;;;1.60;1.50;;;18.40;99.90;;;;;;5095302;28;20163;-71
2022/06/09 17:57:52;;;;;;;5.55;2.10;;;18.30;99.90;;;;;;5095272;28;20552;-71
2022/06/09 18:00:26;;;;;;;3.83;2.30;;;18.20;99.90;;;;;;5095161;28;20246;-71
2022/06/09 18:02:53;;;;;;;2.25;2.03;;;18.20;99.90;;;;;;5095072;28;20177;-71
2022/06/09 18:05:19;;;;;;;5.05;2.20;;;18.10;99.90;;;;;;5095021;28;20168;-71
2022/06/09 18:07:45;;;;;;;2.70;1.73;;;18.10;99.90;;;;;;5094651;28;20217;-72
2022/06/09 18:10:15;;;;;;;2.33;1.92;;;18.10;99.90;;;;;;5094985;28;20217;-71
2022/06/09 18:12:41;;;;;;;2.92;1.95;;;18.10;99.90;;;;;;5093616;28;20179;-71
2022/06/09 18:15:08;;;;;;;3.45;1.95;;;18.00;99.90;;;;;;5094670;28;20167;-71
2022/06/09 18:17:34;;;;;;;2.10;1.80;;;18.00;99.90;;;;;;5094605;28;20175;-71
2022/06/09 18:19:59;;;;;;;4.72;2.10;;;18.10;99.90;;;;;;5094801;28;20486;-71
2022/06/09 18:22:25;;;;;;;4.97;2.00;;;18.30;99.90;;;;;;5094764;28;20175;-72
2022/06/09 18:24:51;;;;;;;3.40;1.70;;;18.60;99.90;;;;;;5094660;28;20166;-71
2022/06/09 18:27:16;;;;;;;4.47;1.80;;;19.00;99.90;;;;;;5094702;28;20171;-71
2022/06/09 18:29:42;;;;;;;2.17;2.08;;;19.20;99.90;;;;;;5094514;28;20198;-71
2022/06/09 18:32:07;;;;;;;5.95;3.10;;;19.50;99.90;;;;;;5094529;28;20546;-72
2022/06/09 18:34:33;;;;;;;3.35;3.05;;;19.80;99.90;;;;;;5094254;28;20222;-71
2022/06/09 18:37:00;;;;;;;2.55;2.35;;;19.90;99.90;;;;;;5094569;28;20228;-71
2022/06/09 18:39:25;;;;;;;5.30;3.22;;;20.00;99.90;;;;;;5094498;28;20246;-72
2022/06/09 18:41:53;;;;;;;2.83;2.17;;;19.80;99.90;;;;;;5094284;28;20217;-72
2022/06/09 18:44:19;;;;;;;4.63;1.70;;;19.70;99.90;;;;;;5093929;28;20190;-71
2022/06/09 18:46:44;;;;;;;1.92;1.70;;;19.60;99.90;;;;;;5094220;28;20209;-71
2022/06/09 18:49:10;;;;;;;2.38;1.90;;;19.30;99.90;;;;;;5093017;28;20224;-71
2022/06/09 18:51:35;;;;;;;4.88;3.00;;;18.90;99.90;;;;;;5094207;28;20166;-71
2022/06/09 18:54:01;;;;;;;2.30;2.10;;;18.60;99.90;;;;;;5094217;28;20199;-71
2022/06/09 18:56:27;;;;;;;3.38;2.85;;;18.40;99.90;;;;;;5094202;28;20167;-71
2022/06/09 18:58:53;;;;;;;5.88;2.50;;;18.20;99.90;;;;;;5094159;28;20178;-71
2022/06/09 19:01:19;;;;;;;5.57;3.60;;;18.00;99.90;;;;;;5094064;28;20166;-71
2022/06/09 19:03:45;;;;;;;3.13;2.88;;;17.90;99.90;;;;;;5093964;28;20520;-71
2022/06/09 19:06:13;;;;;;;5.65;2.72;;;17.80;99.90;;;;;;5093949;28;20167;-71
2022/06/09 19:08:43;;;;;;;3.95;2.63;;;17.60;99.90;;;;;;5094118;28;20171;-71
2022/06/09 19:11:12;;;;;;;4.57;4.18;;;17.50;99.90;;;;;;5093796;28;20171;-71
2022/06/09 19:13:37;;;;;;;4.93;3.58;;;17.30;99.90;;;;;;5093747;28;20274;-71
2022/06/09 19:16:03;;;;;;;4.85;4.32;;;17.10;99.90;;;;;;5093737;28;20202;-71
2022/06/09 19:18:29;;;;;;;8.27;3.70;;;17.00;99.90;;;;;;5093919;28;20213;-71
2022/06/09 19:20:55;;;;;;;5.00;4.40;;;16.90;99.90;;;;;;5093756;28;20167;-71
